Terminal Aerodrome Forecast
Issued by NWS

Home | Current Version | Previous Version | Text Only | Print | Product List | Glossary On
Versions: 1 2 3 4 5 6 7 8 9 10 11 12 13 14 15 16 17 18 19 20 21 22 23 24 25 26 27
000
FTUS44 KFWD 031838 AAA
TAFFTW
TAF AMD
KFTW 031838Z 0319/0418 22017KT P6SM VCSH FEW035 BKN150
     FM032000 20016KT P6SM VCTS BKN050CB BKN150
      TEMPO 0320/0324 VRB20G30KT 5SM -TSRA BKN030CB
     FM040200 19011KT P6SM BKN150
     FM041500 20008KT P6SM SCT030 BKN250=

USA.gov is the U.S. government's official web portal to all federal, state and local government web resources and services.